Caneli — 2BHE7 — position and weather

sailwx.info

Track history (hours):
 
Tides and Currents Weather Stations Pressure Air Temp Water Temp Dewpoint Dewpoint Depression Visibility Wind Speed Wind Dir Waves Ship Positions

Caneli

Last reported at 2016-Jan-10 21:33 UTC. Time now 2016-Feb-07 10:41 UTC.
Position S 27°04' E 153°32'.
Warning: this ship's position is 27 days out of date.

Length 43 m; draft 3 m.

Type: Pleasure craft. MMSI: 235065392.

Date/timePositionNaut miles runAvg speedWind from/ knotsBaromVisibWave heightAir tempDewpointWater temp
2016-Jan-10 21:33S 27°04' E 153°32'1110.3
2016-Jan-10 20:27S 27°15' E 153°34'1010.1
2016-Jan-10 19:31S 27°24' E 153°36'9 9.9
2016-Jan-10 18:33S 27°33' E 153°38'9 9.1
2016-Jan-10 17:33S 27°43' E 153°39'10 8.5
2016-Jan-10 16:25S 27°52' E 153°41'287 9.0
2016-Jan-09 08:33S 32°33' E 152°31'9 9.0
2016-Jan-09 07:33S 32°40' E 152°24'9 8.7
2016-Jan-09 06:33S 32°47' E 152°18'9 9.0
2016-Jan-09 05:33S 32°54' E 152°12'9 9.0
2016-Jan-09 04:33S 33°02' E 152°05'9 9.0
2016-Jan-09 03:32S 33°09' E 151°59'  
Track history (hours):
 
Tides and Currents Weather Stations Pressure Air Temp Water Temp Dewpoint Dewpoint Depression Visibility Wind Speed Wind Dir Waves Ship Positions

Caneli

Last reported at 2016-Jan-10 21:33 UTC. Time now 2016-Feb-07 10:41 UTC.
Position S 27°04' E 153°32'.
Warning: this ship's position is 27 days out of date.

Length 43 m; draft 3 m.

Type: Pleasure craft. MMSI: 235065392.

Date/timePositionNaut miles runAvg speedWind from/ knotsBaromVisibWave heightAir tempDewpointWater temp
2016-Jan-10 21:33S 27°04' E 153°32'1110.3
2016-Jan-10 20:27S 27°15' E 153°34'1010.1
2016-Jan-10 19:31S 27°24' E 153°36'9 9.9
2016-Jan-10 18:33S 27°33' E 153°38'9 9.1
2016-Jan-10 17:33S 27°43' E 153°39'10 8.5
2016-Jan-10 16:25S 27°52' E 153°41'287 9.0
2016-Jan-09 08:33S 32°33' E 152°31'9 9.0
2016-Jan-09 07:33S 32°40' E 152°24'9 8.7
2016-Jan-09 06:33S 32°47' E 152°18'9 9.0
2016-Jan-09 05:33S 32°54' E 152°12'9 9.0
2016-Jan-09 04:33S 33°02' E 152°05'9 9.0
2016-Jan-09 03:32S 33°09' E 151°59'  

Dump ship's entire track history